sensor_id;sensor_type;location;lat;lon;timestamp;P1;durP1;ratioP1;P2;durP2;ratioP2
13475;SDS011;6810;63.824;20.288;2022-10-31T03:56:21;0.63;;;0.43;;
13475;SDS011;6810;63.824;20.288;2022-10-31T04:01:50;2.40;;;0.90;;
13475;SDS011;6810;63.824;20.288;2022-10-31T04:04:43;1.40;;;0.80;;
13475;SDS011;6810;63.824;20.288;2022-10-31T04:07:33;1.13;;;0.70;;
13475;SDS011;6810;63.824;20.288;2022-10-31T04:10:25;1.73;;;0.60;;
13475;SDS011;6810;63.824;20.288;2022-10-31T04:13:16;2.57;;;0.90;;
13475;SDS011;6810;63.824;20.288;2022-10-31T04:16:12;2.10;;;0.83;;
13475;SDS011;6810;63.824;20.288;2022-10-31T04:19:01;1.77;;;0.73;;
13475;SDS011;6810;63.824;20.288;2022-10-31T04:21:48;1.63;;;0.50;;
13475;SDS011;6810;63.824;20.288;2022-10-31T04:24:37;0.80;;;0.50;;
13475;SDS011;6810;63.824;20.288;2022-10-31T04:27:26;2.33;;;0.83;;
13475;SDS011;6810;63.824;20.288;2022-10-31T04:30:13;4.23;;;0.97;;
13475;SDS011;6810;63.824;20.288;2022-10-31T04:33:00;1.27;;;0.80;;
13475;SDS011;6810;63.824;20.288;2022-10-31T04:35:47;1.97;;;0.67;;
13475;SDS011;6810;63.824;20.288;2022-10-31T04:38:34;1.70;;;0.67;;
13475;SDS011;6810;63.824;20.288;2022-10-31T04:41:34;0.50;;;0.50;;
13475;SDS011;6810;63.824;20.288;2022-10-31T04:44:22;1.13;;;0.50;;
13475;SDS011;6810;63.824;20.288;2022-10-31T04:47:09;3.23;;;0.80;;
13475;SDS011;6810;63.824;20.288;2022-10-31T04:49:56;2.70;;;0.70;;
13475;SDS011;6810;63.824;20.288;2022-10-31T04:52:45;2.50;;;0.70;;
13475;SDS011;6810;63.824;20.288;2022-10-31T04:55:39;1.77;;;0.40;;
13475;SDS011;6810;63.824;20.288;2022-10-31T04:58:34;2.10;;;0.50;;
13475;SDS011;6810;63.824;20.288;2022-10-31T05:01:22;2.53;;;0.70;;
13475;SDS011;6810;63.824;20.288;2022-10-31T05:04:10;1.50;;;0.80;;
13475;SDS011;6810;63.824;20.288;2022-10-31T05:06:57;2.10;;;0.63;;
13475;SDS011;6810;63.824;20.288;2022-10-31T05:09:44;3.30;;;0.57;;
13475;SDS011;6810;63.824;20.288;2022-10-31T05:12:32;0.83;;;0.50;;
13475;SDS011;6810;63.824;20.288;2022-10-31T05:15:39;0.50;;;0.50;;
13475;SDS011;6810;63.824;20.288;2022-10-31T05:18:28;0.40;;;0.30;;
13475;SDS011;6810;63.824;20.288;2022-10-31T05:21:27;0.60;;;0.50;;
13475;SDS011;6810;63.824;20.288;2022-10-31T05:24:14;1.70;;;0.33;;
13475;SDS011;6810;63.824;20.288;2022-10-31T05:27:01;1.10;;;0.43;;
13475;SDS011;6810;63.824;20.288;2022-10-31T05:29:48;1.10;;;0.77;;
13475;SDS011;6810;63.824;20.288;2022-10-31T05:32:15;1.70;;;0.60;;
13475;SDS011;6810;63.824;20.288;2022-10-31T05:35:21;8.30;;;1.00;;
13475;SDS011;6810;63.824;20.288;2022-10-31T05:38:28;5.70;;;0.70;;
13475;SDS011;6810;63.824;20.288;2022-10-31T05:41:22;6.47;;;0.90;;
13475;SDS011;6810;63.824;20.288;2022-10-31T05:44:17;8.30;;;1.00;;
13475;SDS011;6810;63.824;20.288;2022-10-31T05:47:21;5.83;;;1.03;;
13475;SDS011;6810;63.824;20.288;2022-10-31T05:50:26;7.50;;;0.90;;
13475;SDS011;6810;63.824;20.288;2022-10-31T05:53:15;3.40;;;0.77;;
13475;SDS011;6810;63.824;20.288;2022-10-31T05:56:02;5.40;;;1.00;;
13475;SDS011;6810;63.824;20.288;2022-10-31T05:58:49;4.47;;;1.17;;
13475;SDS011;6810;63.824;20.288;2022-10-31T06:01:37;4.57;;;1.07;;
13475;SDS011;6810;63.824;20.288;2022-10-31T06:04:43;3.30;;;0.77;;
13475;SDS011;6810;63.824;20.288;2022-10-31T06:07:33;4.23;;;1.10;;
13475;SDS011;6810;63.824;20.288;2022-10-31T06:10:22;4.20;;;1.23;;
13475;SDS011;6810;63.824;20.288;2022-10-31T06:13:10;5.53;;;1.20;;
13475;SDS011;6810;63.824;20.288;2022-10-31T06:16:03;2.50;;;1.07;;
13475;SDS011;6810;63.824;20.288;2022-10-31T06:18:51;6.57;;;1.87;;
13475;SDS011;6810;63.824;20.288;2022-10-31T06:21:37;9.70;;;2.30;;
13475;SDS011;6810;63.824;20.288;2022-10-31T06:24:24;7.10;;;2.27;;
13475;SDS011;6810;63.824;20.288;2022-10-31T06:27:28;8.80;;;2.17;;
13475;SDS011;6810;63.824;20.288;2022-10-31T06:30:19;7.53;;;2.10;;
13475;SDS011;6810;63.824;20.288;2022-10-31T06:33:05;8.17;;;2.43;;
13475;SDS011;6810;63.824;20.288;2022-10-31T06:35:55;7.27;;;2.73;;
13475;SDS011;6810;63.824;20.288;2022-10-31T06:38:42;11.10;;;2.40;;
13475;SDS011;6810;63.824;20.288;2022-10-31T06:41:29;5.30;;;2.03;;
13475;SDS011;6810;63.824;20.288;2022-10-31T06:44:19;13.47;;;2.43;;
13475;SDS011;6810;63.824;20.288;2022-10-31T06:47:24;7.07;;;2.23;;
13475;SDS011;6810;63.824;20.288;2022-10-31T06:50:35;6.93;;;2.23;;
13475;SDS011;6810;63.824;20.288;2022-10-31T06:53:25;3.93;;;2.40;;
13475;SDS011;6810;63.824;20.288;2022-10-31T06:56:15;10.00;;;2.33;;
13475;SDS011;6810;63.824;20.288;2022-10-31T06:59:03;10.43;;;2.30;;
13475;SDS011;6810;63.824;20.288;2022-10-31T07:02:09;12.90;;;3.13;;
13475;SDS011;6810;63.824;20.288;2022-10-31T07:04:56;6.60;;;3.10;;
13475;SDS011;6810;63.824;20.288;2022-10-31T07:07:43;14.50;;;3.50;;
13475;SDS011;6810;63.824;20.288;2022-10-31T07:10:31;6.60;;;2.70;;
13475;SDS011;6810;63.824;20.288;2022-10-31T07:13:20;11.07;;;3.73;;
13475;SDS011;6810;63.824;20.288;2022-10-31T07:16:08;12.73;;;3.50;;
13475;SDS011;6810;63.824;20.288;2022-10-31T07:18:54;11.93;;;3.43;;
13475;SDS011;6810;63.824;20.288;2022-10-31T07:21:21;6.93;;;3.20;;
13475;SDS011;6810;63.824;20.288;2022-10-31T07:24:10;9.17;;;2.73;;
13475;SDS011;6810;63.824;20.288;2022-10-31T07:27:15;9.17;;;2.60;;
13475;SDS011;6810;63.824;20.288;2022-10-31T07:30:09;5.50;;;2.00;;
13475;SDS011;6810;63.824;20.288;2022-10-31T07:32:57;8.70;;;2.50;;
13475;SDS011;6810;63.824;20.288;2022-10-31T07:36:02;3.17;;;1.87;;
13475;SDS011;6810;63.824;20.288;2022-10-31T07:38:51;6.80;;;2.07;;
13475;SDS011;6810;63.824;20.288;2022-10-31T07:41:38;2.67;;;1.93;;
13475;SDS011;6810;63.824;20.288;2022-10-31T07:44:25;5.20;;;1.60;;
13475;SDS011;6810;63.824;20.288;2022-10-31T07:47:51;3.83;;;1.80;;
13475;SDS011;6810;63.824;20.288;2022-10-31T07:50:57;6.20;;;1.80;;
13475;SDS011;6810;63.824;20.288;2022-10-31T07:54:02;5.80;;;1.73;;
13475;SDS011;6810;63.824;20.288;2022-10-31T07:56:49;3.13;;;1.23;;
13475;SDS011;6810;63.824;20.288;2022-10-31T07:59:37;4.30;;;1.57;;
13475;SDS011;6810;63.824;20.288;2022-10-31T08:02:24;2.73;;;1.27;;
13475;SDS011;6810;63.824;20.288;2022-10-31T08:05:32;6.63;;;1.67;;
13475;SDS011;6810;63.824;20.288;2022-10-31T08:08:38;2.70;;;1.20;;
13475;SDS011;6810;63.824;20.288;2022-10-31T08:11:25;3.83;;;2.00;;
13475;SDS011;6810;63.824;20.288;2022-10-31T08:14:12;4.03;;;1.47;;
13475;SDS011;6810;63.824;20.288;2022-10-31T08:17:00;5.80;;;1.67;;
13475;SDS011;6810;63.824;20.288;2022-10-31T08:19:53;3.97;;;1.30;;
13475;SDS011;6810;63.824;20.288;2022-10-31T08:22:54;4.03;;;1.20;;
13475;SDS011;6810;63.824;20.288;2022-10-31T08:25:43;3.63;;;1.10;;
13475;SDS011;6810;63.824;20.288;2022-10-31T08:28:30;7.60;;;1.57;;
13475;SDS011;6810;63.824;20.288;2022-10-31T08:31:19;6.90;;;1.50;;
13475;SDS011;6810;63.824;20.288;2022-10-31T08:34:27;5.53;;;1.20;;
13475;SDS011;6810;63.824;20.288;2022-10-31T08:37:32;3.10;;;0.83;;
13475;SDS011;6810;63.824;20.288;2022-10-31T08:39:59;2.67;;;0.80;;
13475;SDS011;6810;63.824;20.288;2022-10-31T08:42:26;10.80;;;1.10;;
13475;SDS011;6810;63.824;20.288;2022-10-31T08:44:52;8.43;;;1.53;;
13475;SDS011;6810;63.824;20.288;2022-10-31T08:47:21;5.40;;;1.70;;
13475;SDS011;6810;63.824;20.288;2022-10-31T08:49:47;4.40;;;1.40;;
13475;SDS011;6810;63.824;20.288;2022-10-31T08:52:14;6.23;;;1.30;;
13475;SDS011;6810;63.824;20.288;2022-10-31T08:55:21;3.53;;;1.10;;
13475;SDS011;6810;63.824;20.288;2022-10-31T08:58:22;6.07;;;1.40;;
13475;SDS011;6810;63.824;20.288;2022-10-31T09:01:10;4.83;;;1.30;;
13475;SDS011;6810;63.824;20.288;2022-10-31T09:03:57;4.07;;;1.63;;
13475;SDS011;6810;63.824;20.288;2022-10-31T09:06:44;4.37;;;1.53;;
13475;SDS011;6810;63.824;20.288;2022-10-31T09:09:47;7.27;;;1.53;;
13475;SDS011;6810;63.824;20.288;2022-10-31T09:12:36;6.97;;;1.37;;
13475;SDS011;6810;63.824;20.288;2022-10-31T09:15:49;6.17;;;1.17;;
13475;SDS011;6810;63.824;20.288;2022-10-31T09:18:22;4.40;;;0.97;;
13475;SDS011;6810;63.824;20.288;2022-10-31T09:21:09;5.67;;;1.40;;
13475;SDS011;6810;63.824;20.288;2022-10-31T09:23:57;2.63;;;1.27;;
13475;SDS011;6810;63.824;20.288;2022-10-31T09:26:44;9.23;;;1.33;;
13475;SDS011;6810;63.824;20.288;2022-10-31T09:29:34;4.73;;;1.43;;
13475;SDS011;6810;63.824;20.288;2022-10-31T09:32:21;6.67;;;1.50;;
13475;SDS011;6810;63.824;20.288;2022-10-31T09:35:09;5.33;;;1.53;;
13475;SDS011;6810;63.824;20.288;2022-10-31T09:37:57;12.07;;;2.23;;
13475;SDS011;6810;63.824;20.288;2022-10-31T09:41:03;6.70;;;1.33;;
13475;SDS011;6810;63.824;20.288;2022-10-31T09:50:35;5.73;;;1.00;;
13475;SDS011;6810;63.824;20.288;2022-10-31T09:53:44;4.53;;;1.20;;
13475;SDS011;6810;63.824;20.288;2022-10-31T09:56:37;7.00;;;1.23;;
13475;SDS011;6810;63.824;20.288;2022-10-31T09:59:30;5.40;;;1.20;;
13475;SDS011;6810;63.824;20.288;2022-10-31T10:04:49;6.00;;;1.47;;
13475;SDS011;6810;63.824;20.288;2022-10-31T10:07:44;4.27;;;1.27;;
13475;SDS011;6810;63.824;20.288;2022-10-31T10:10:40;8.17;;;1.70;;
13475;SDS011;6810;63.824;20.288;2022-10-31T10:13:38;5.20;;;1.67;;
13475;SDS011;6810;63.824;20.288;2022-10-31T10:27:58;3.83;;;1.57;;
13475;SDS011;6810;63.824;20.288;2022-10-31T10:36:46;7.83;;;1.93;;
13475;SDS011;6810;63.824;20.288;2022-10-31T10:39:42;5.63;;;2.80;;
13475;SDS011;6810;63.824;20.288;2022-10-31T10:42:33;6.43;;;2.00;;
13475;SDS011;6810;63.824;20.288;2022-10-31T10:45:20;12.17;;;2.00;;
13475;SDS011;6810;63.824;20.288;2022-10-31T10:48:08;9.57;;;2.23;;
13475;SDS011;6810;63.824;20.288;2022-10-31T10:51:32;7.57;;;2.10;;
13475;SDS011;6810;63.824;20.288;2022-10-31T10:58:08;9.33;;;1.73;;
13475;SDS011;6810;63.824;20.288;2022-10-31T11:00:56;12.10;;;2.90;;
13475;SDS011;6810;63.824;20.288;2022-10-31T11:03:43;12.33;;;2.10;;
13475;SDS011;6810;63.824;20.288;2022-10-31T11:06:30;12.20;;;1.93;;
13475;SDS011;6810;63.824;20.288;2022-10-31T11:09:17;11.80;;;2.17;;
13475;SDS011;6810;63.824;20.288;2022-10-31T11:12:08;10.20;;;1.83;;
13475;SDS011;6810;63.824;20.288;2022-10-31T11:15:21;10.43;;;1.87;;
13475;SDS011;6810;63.824;20.288;2022-10-31T11:18:18;7.17;;;1.83;;
13475;SDS011;6810;63.824;20.288;2022-10-31T11:21:17;12.63;;;2.53;;
13475;SDS011;6810;63.824;20.288;2022-10-31T11:27:09;10.90;;;2.30;;
13475;SDS011;6810;63.824;20.288;2022-10-31T11:30:05;11.77;;;2.50;;
13475;SDS011;6810;63.824;20.288;2022-10-31T11:32:53;12.27;;;2.37;;
13475;SDS011;6810;63.824;20.288;2022-10-31T11:35:40;10.50;;;1.83;;
13475;SDS011;6810;63.824;20.288;2022-10-31T11:38:32;10.53;;;2.50;;
13475;SDS011;6810;63.824;20.288;2022-10-31T11:41:35;8.83;;;2.80;;
13475;SDS011;6810;63.824;20.288;2022-10-31T11:44:33;10.63;;;2.53;;
13475;SDS011;6810;63.824;20.288;2022-10-31T11:47:27;6.43;;;2.23;;
13475;SDS011;6810;63.824;20.288;2022-10-31T11:53:34;9.97;;;3.37;;
13475;SDS011;6810;63.824;20.288;2022-10-31T11:56:37;13.83;;;2.80;;
13475;SDS011;6810;63.824;20.288;2022-10-31T11:59:27;8.47;;;2.47;;
13475;SDS011;6810;63.824;20.288;2022-10-31T12:02:18;9.30;;;2.87;;
13475;SDS011;6810;63.824;20.288;2022-10-31T12:07:56;4.03;;;1.90;;
13475;SDS011;6810;63.824;20.288;2022-10-31T12:13:34;5.27;;;1.97;;
13475;SDS011;6810;63.824;20.288;2022-10-31T12:29:01;8.10;;;1.53;;
13475;SDS011;6810;63.824;20.288;2022-10-31T12:50:51;4.17;;;1.47;;
13475;SDS011;6810;63.824;20.288;2022-10-31T12:59:39;4.63;;;1.50;;
13475;SDS011;6810;63.824;20.288;2022-10-31T13:02:41;5.77;;;1.53;;
13475;SDS011;6810;63.824;20.288;2022-10-31T13:05:43;4.13;;;1.53;;
13475;SDS011;6810;63.824;20.288;2022-10-31T13:08:39;2.13;;;1.40;;
13475;SDS011;6810;63.824;20.288;2022-10-31T13:11:33;5.27;;;1.50;;
13475;SDS011;6810;63.824;20.288;2022-10-31T13:14:42;2.27;;;1.30;;
13475;SDS011;6810;63.824;20.288;2022-10-31T13:17:43;3.17;;;0.90;;
13475;SDS011;6810;63.824;20.288;2022-10-31T13:20:43;3.83;;;1.40;;
13475;SDS011;6810;63.824;20.288;2022-10-31T13:23:34;2.97;;;1.23;;
13475;SDS011;6810;63.824;20.288;2022-10-31T13:26:30;3.30;;;1.20;;
13475;SDS011;6810;63.824;20.288;2022-10-31T13:32:22;3.40;;;1.30;;
13475;SDS011;6810;63.824;20.288;2022-10-31T13:35:53;4.17;;;1.17;;
13475;SDS011;6810;63.824;20.288;2022-10-31T13:41:44;4.57;;;2.00;;
13475;SDS011;6810;63.824;20.288;2022-10-31T13:44:35;5.40;;;1.63;;
13475;SDS011;6810;63.824;20.288;2022-10-31T13:47:26;3.50;;;1.83;;
13475;SDS011;6810;63.824;20.288;2022-10-31T13:53:18;2.53;;;1.60;;
13475;SDS011;6810;63.824;20.288;2022-10-31T13:56:17;3.27;;;2.00;;
13475;SDS011;6810;63.824;20.288;2022-10-31T14:01:57;3.93;;;1.47;;
13475;SDS011;6810;63.824;20.288;2022-10-31T14:04:48;4.27;;;1.70;;
13475;SDS011;6810;63.824;20.288;2022-10-31T14:07:59;2.27;;;1.60;;
13475;SDS011;6810;63.824;20.288;2022-10-31T14:10:53;3.50;;;1.40;;
13475;SDS011;6810;63.824;20.288;2022-10-31T14:13:42;2.97;;;1.97;;
13475;SDS011;6810;63.824;20.288;2022-10-31T14:16:31;3.83;;;1.87;;
13475;SDS011;6810;63.824;20.288;2022-10-31T14:19:21;4.53;;;1.60;;
13475;SDS011;6810;63.824;20.288;2022-10-31T14:22:19;4.90;;;1.80;;
13475;SDS011;6810;63.824;20.288;2022-10-31T14:25:27;3.00;;;1.97;;
13475;SDS011;6810;63.824;20.288;2022-10-31T14:28:31;4.90;;;1.70;;
13475;SDS011;6810;63.824;20.288;2022-10-31T14:31:29;3.67;;;1.50;;
13475;SDS011;6810;63.824;20.288;2022-10-31T14:34:22;3.80;;;2.00;;
13475;SDS011;6810;63.824;20.288;2022-10-31T14:40:29;6.10;;;1.90;;
13475;SDS011;6810;63.824;20.288;2022-10-31T14:43:36;6.73;;;2.17;;
13475;SDS011;6810;63.824;20.288;2022-10-31T14:49:26;4.33;;;1.77;;
13475;SDS011;6810;63.824;20.288;2022-10-31T14:52:37;2.40;;;1.40;;
13475;SDS011;6810;63.824;20.288;2022-10-31T14:55:25;1.47;;;1.10;;
13475;SDS011;6810;63.824;20.288;2022-10-31T14:58:13;3.87;;;1.80;;
13475;SDS011;6810;63.824;20.288;2022-10-31T15:01:04;4.57;;;1.90;;
13475;SDS011;6810;63.824;20.288;2022-10-31T15:03:53;2.33;;;1.17;;
13475;SDS011;6810;63.824;20.288;2022-10-31T15:10:06;1.70;;;1.30;;
13475;SDS011;6810;63.824;20.288;2022-10-31T15:13:08;3.20;;;1.90;;
13475;SDS011;6810;63.824;20.288;2022-10-31T15:15:56;3.13;;;1.80;;
13475;SDS011;6810;63.824;20.288;2022-10-31T15:18:47;2.27;;;1.50;;
13475;SDS011;6810;63.824;20.288;2022-10-31T15:21:42;1.87;;;1.60;;
13475;SDS011;6810;63.824;20.288;2022-10-31T15:24:32;3.70;;;1.80;;
13475;SDS011;6810;63.824;20.288;2022-10-31T15:27:21;5.20;;;1.43;;
13475;SDS011;6810;63.824;20.288;2022-10-31T15:30:48;2.27;;;1.60;;
13475;SDS011;6810;63.824;20.288;2022-10-31T15:33:26;4.63;;;1.50;;
13475;SDS011;6810;63.824;20.288;2022-10-31T15:36:21;2.53;;;1.43;;
13475;SDS011;6810;63.824;20.288;2022-10-31T15:39:10;3.13;;;1.30;;
13475;SDS011;6810;63.824;20.288;2022-10-31T15:41:58;2.60;;;1.57;;
13475;SDS011;6810;63.824;20.288;2022-10-31T15:44:47;4.17;;;1.67;;
13475;SDS011;6810;63.824;20.288;2022-10-31T15:47:38;3.00;;;1.50;;
13475;SDS011;6810;63.824;20.288;2022-10-31T15:50:41;2.83;;;1.70;;
13475;SDS011;6810;63.824;20.288;2022-10-31T15:56:24;2.47;;;1.53;;
13475;SDS011;6810;63.824;20.288;2022-10-31T15:59:19;3.17;;;1.50;;
13475;SDS011;6810;63.824;20.288;2022-10-31T16:02:10;2.70;;;1.63;;
13475;SDS011;6810;63.824;20.288;2022-10-31T16:04:59;2.73;;;1.40;;
13475;SDS011;6810;63.824;20.288;2022-10-31T16:07:50;1.57;;;1.20;;
13475;SDS011;6810;63.824;20.288;2022-10-31T16:10:38;2.20;;;1.27;;
13475;SDS011;6810;63.824;20.288;2022-10-31T16:13:32;3.93;;;1.80;;
13475;SDS011;6810;63.824;20.288;2022-10-31T16:16:21;1.40;;;1.17;;
13475;SDS011;6810;63.824;20.288;2022-10-31T16:19:28;3.40;;;2.07;;
13475;SDS011;6810;63.824;20.288;2022-10-31T16:22:20;5.30;;;2.73;;
13475;SDS011;6810;63.824;20.288;2022-10-31T16:25:10;4.63;;;2.40;;
13475;SDS011;6810;63.824;20.288;2022-10-31T16:28:25;3.30;;;1.47;;
13475;SDS011;6810;63.824;20.288;2022-10-31T16:31:14;2.60;;;1.53;;
13475;SDS011;6810;63.824;20.288;2022-10-31T16:34:01;2.80;;;2.00;;
13475;SDS011;6810;63.824;20.288;2022-10-31T16:37:08;2.27;;;1.70;;
13475;SDS011;6810;63.824;20.288;2022-10-31T16:39:55;2.93;;;1.57;;
13475;SDS011;6810;63.824;20.288;2022-10-31T16:42:42;1.47;;;1.13;;
13475;SDS011;6810;63.824;20.288;2022-10-31T16:45:31;1.30;;;1.00;;
13475;SDS011;6810;63.824;20.288;2022-10-31T16:48:19;1.30;;;1.10;;
13475;SDS011;6810;63.824;20.288;2022-10-31T16:51:07;1.60;;;0.97;;
13475;SDS011;6810;63.824;20.288;2022-10-31T16:53:54;1.87;;;1.00;;
13475;SDS011;6810;63.824;20.288;2022-10-31T16:56:41;1.33;;;1.00;;
13475;SDS011;6810;63.824;20.288;2022-10-31T16:59:11;1.40;;;0.90;;
13475;SDS011;6810;63.824;20.288;2022-10-31T17:01:41;2.03;;;0.90;;
13475;SDS011;6810;63.824;20.288;2022-10-31T17:04:12;2.83;;;1.00;;
13475;SDS011;6810;63.824;20.288;2022-10-31T17:06:40;1.07;;;0.80;;
13475;SDS011;6810;63.824;20.288;2022-10-31T17:09:08;1.50;;;1.23;;
13475;SDS011;6810;63.824;20.288;2022-10-31T17:11:35;1.33;;;1.23;;
13475;SDS011;6810;63.824;20.288;2022-10-31T17:14:03;2.90;;;1.77;;
13475;SDS011;6810;63.824;20.288;2022-10-31T17:16:50;2.97;;;1.90;;
13475;SDS011;6810;63.824;20.288;2022-10-31T17:19:17;3.03;;;1.60;;
13475;SDS011;6810;63.824;20.288;2022-10-31T17:21:44;2.23;;;1.30;;
13475;SDS011;6810;63.824;20.288;2022-10-31T17:24:31;1.93;;;0.97;;
13475;SDS011;6810;63.824;20.288;2022-10-31T17:27:17;1.53;;;0.93;;
13475;SDS011;6810;63.824;20.288;2022-10-31T17:30:10;0.80;;;0.80;;
13475;SDS011;6810;63.824;20.288;2022-10-31T17:32:58;0.87;;;0.70;;
13475;SDS011;6810;63.824;20.288;2022-10-31T17:35:45;1.07;;;0.80;;
13475;SDS011;6810;63.824;20.288;2022-10-31T17:38:32;1.63;;;0.70;;
13475;SDS011;6810;63.824;20.288;2022-10-31T17:41:19;0.83;;;0.80;;
13475;SDS011;6810;63.824;20.288;2022-10-31T17:44:08;1.73;;;0.80;;
13475;SDS011;6810;63.824;20.288;2022-10-31T17:46:56;0.67;;;0.60;;
13475;SDS011;6810;63.824;20.288;2022-10-31T17:49:42;0.93;;;0.60;;
13475;SDS011;6810;63.824;20.288;2022-10-31T17:52:29;1.20;;;1.00;;
13475;SDS011;6810;63.824;20.288;2022-10-31T17:55:16;1.17;;;0.90;;
13475;SDS011;6810;63.824;20.288;2022-10-31T17:58:03;1.43;;;0.77;;
13475;SDS011;6810;63.824;20.288;2022-10-31T18:00:50;2.17;;;0.73;;
13475;SDS011;6810;63.824;20.288;2022-10-31T18:03:37;1.00;;;0.87;;
13475;SDS011;6810;63.824;20.288;2022-10-31T18:06:25;1.13;;;0.80;;
13475;SDS011;6810;63.824;20.288;2022-10-31T18:09:11;1.57;;;1.10;;
13475;SDS011;6810;63.824;20.288;2022-10-31T18:11:58;0.70;;;0.60;;
13475;SDS011;6810;63.824;20.288;2022-10-31T18:14:45;1.07;;;0.60;;
13475;SDS011;6810;63.824;20.288;2022-10-31T18:17:32;2.00;;;0.57;;
13475;SDS011;6810;63.824;20.288;2022-10-31T18:20:19;1.47;;;0.80;;
13475;SDS011;6810;63.824;20.288;2022-10-31T18:23:05;2.20;;;1.20;;
13475;SDS011;6810;63.824;20.288;2022-10-31T18:25:53;1.27;;;0.97;;
13475;SDS011;6810;63.824;20.288;2022-10-31T18:28:40;1.10;;;1.00;;
13475;SDS011;6810;63.824;20.288;2022-10-31T18:31:26;1.43;;;1.00;;
13475;SDS011;6810;63.824;20.288;2022-10-31T18:34:14;1.33;;;0.80;;
13475;SDS011;6810;63.824;20.288;2022-10-31T18:37:00;4.47;;;0.63;;
13475;SDS011;6810;63.824;20.288;2022-10-31T18:39:47;0.93;;;0.60;;
13475;SDS011;6810;63.824;20.288;2022-10-31T18:42:34;0.60;;;0.60;;
13475;SDS011;6810;63.824;20.288;2022-10-31T18:45:21;0.93;;;0.63;;
13475;SDS011;6810;63.824;20.288;2022-10-31T18:48:15;1.60;;;0.60;;
13475;SDS011;6810;63.824;20.288;2022-10-31T18:51:03;1.10;;;1.00;;
13475;SDS011;6810;63.824;20.288;2022-10-31T18:53:51;2.63;;;1.43;;
13475;SDS011;6810;63.824;20.288;2022-10-31T18:56:39;2.63;;;1.20;;
13475;SDS011;6810;63.824;20.288;2022-10-31T18:59:25;2.63;;;1.40;;
13475;SDS011;6810;63.824;20.288;2022-10-31T19:02:12;3.53;;;1.30;;
13475;SDS011;6810;63.824;20.288;2022-10-31T19:05:02;1.90;;;0.97;;
13475;SDS011;6810;63.824;20.288;2022-10-31T19:07:49;2.77;;;1.00;;
13475;SDS011;6810;63.824;20.288;2022-10-31T19:10:36;2.50;;;0.93;;
13475;SDS011;6810;63.824;20.288;2022-10-31T19:13:24;3.07;;;1.70;;
13475;SDS011;6810;63.824;20.288;2022-10-31T19:16:12;2.43;;;0.80;;
13475;SDS011;6810;63.824;20.288;2022-10-31T19:19:01;1.20;;;0.90;;
13475;SDS011;6810;63.824;20.288;2022-10-31T19:21:47;1.37;;;1.27;;
13475;SDS011;6810;63.824;20.288;2022-10-31T19:24:34;2.03;;;1.20;;
13475;SDS011;6810;63.824;20.288;2022-10-31T19:27:21;2.40;;;1.33;;
13475;SDS011;6810;63.824;20.288;2022-10-31T19:30:08;1.23;;;1.00;;
13475;SDS011;6810;63.824;20.288;2022-10-31T19:32:55;1.67;;;0.80;;
13475;SDS011;6810;63.824;20.288;2022-10-31T19:35:42;2.10;;;1.27;;
13475;SDS011;6810;63.824;20.288;2022-10-31T19:38:29;1.13;;;0.80;;
13475;SDS011;6810;63.824;20.288;2022-10-31T19:41:17;1.03;;;0.50;;
13475;SDS011;6810;63.824;20.288;2022-10-31T19:44:05;0.93;;;0.50;;
13475;SDS011;6810;63.824;20.288;2022-10-31T19:46:52;0.80;;;0.60;;
13475;SDS011;6810;63.824;20.288;2022-10-31T19:49:39;1.53;;;0.83;;
13475;SDS011;6810;63.824;20.288;2022-10-31T19:52:25;1.83;;;0.97;;
13475;SDS011;6810;63.824;20.288;2022-10-31T19:55:12;1.73;;;0.77;;
13475;SDS011;6810;63.824;20.288;2022-10-31T19:57:59;0.60;;;0.60;;
13475;SDS011;6810;63.824;20.288;2022-10-31T20:00:46;0.80;;;0.80;;
13475;SDS011;6810;63.824;20.288;2022-10-31T20:03:32;1.17;;;0.70;;
13475;SDS011;6810;63.824;20.288;2022-10-31T20:09:13;1.60;;;0.80;;
13475;SDS011;6810;63.824;20.288;2022-10-31T20:12:00;0.60;;;0.60;;
13475;SDS011;6810;63.824;20.288;2022-10-31T20:14:47;0.93;;;0.63;;
13475;SDS011;6810;63.824;20.288;2022-10-31T20:17:34;0.97;;;0.60;;
13475;SDS011;6810;63.824;20.288;2022-10-31T20:20:21;1.10;;;0.53;;
13475;SDS011;6810;63.824;20.288;2022-10-31T20:23:08;1.60;;;0.50;;
13475;SDS011;6810;63.824;20.288;2022-10-31T20:25:55;0.97;;;0.57;;
13475;SDS011;6810;63.824;20.288;2022-10-31T20:28:42;0.77;;;0.60;;
13475;SDS011;6810;63.824;20.288;2022-10-31T20:31:30;0.97;;;0.80;;
13475;SDS011;6810;63.824;20.288;2022-10-31T20:34:19;1.60;;;0.70;;
13475;SDS011;6810;63.824;20.288;2022-10-31T20:37:05;1.50;;;0.60;;
13475;SDS011;6810;63.824;20.288;2022-10-31T20:39:52;2.23;;;0.57;;
13475;SDS011;6810;63.824;20.288;2022-10-31T20:42:39;1.33;;;0.57;;
13475;SDS011;6810;63.824;20.288;2022-10-31T20:45:26;0.67;;;0.60;;
13475;SDS011;6810;63.824;20.288;2022-10-31T20:48:13;2.07;;;0.47;;
13475;SDS011;6810;63.824;20.288;2022-10-31T20:51:03;0.73;;;0.30;;
13475;SDS011;6810;63.824;20.288;2022-10-31T20:53:52;0.70;;;0.40;;
13475;SDS011;6810;63.824;20.288;2022-10-31T20:56:41;0.40;;;0.40;;
13475;SDS011;6810;63.824;20.288;2022-10-31T20:59:27;0.30;;;0.30;;
13475;SDS011;6810;63.824;20.288;2022-10-31T21:02:14;1.17;;;0.73;;
13475;SDS011;6810;63.824;20.288;2022-10-31T21:05:01;1.20;;;0.60;;
13475;SDS011;6810;63.824;20.288;2022-10-31T21:07:48;2.00;;;0.80;;
13475;SDS011;6810;63.824;20.288;2022-10-31T21:10:35;2.73;;;0.90;;
13475;SDS011;6810;63.824;20.288;2022-10-31T21:13:24;3.00;;;1.10;;
13475;SDS011;6810;63.824;20.288;2022-10-31T21:16:16;1.53;;;0.40;;
13475;SDS011;6810;63.824;20.288;2022-10-31T21:19:05;0.20;;;0.20;;
13475;SDS011;6810;63.824;20.288;2022-10-31T21:21:51;0.50;;;0.30;;
13475;SDS011;6810;63.824;20.288;2022-10-31T21:24:38;0.40;;;0.40;;
13475;SDS011;6810;63.824;20.288;2022-10-31T21:27:25;1.87;;;0.43;;
13475;SDS011;6810;63.824;20.288;2022-10-31T21:30:11;0.60;;;0.27;;
13475;SDS011;6810;63.824;20.288;2022-10-31T21:32:58;1.13;;;0.30;;
13475;SDS011;6810;63.824;20.288;2022-10-31T21:35:49;0.40;;;0.30;;
13475;SDS011;6810;63.824;20.288;2022-10-31T21:38:37;0.30;;;0.30;;
13475;SDS011;6810;63.824;20.288;2022-10-31T21:41:24;0.60;;;0.40;;
13475;SDS011;6810;63.824;20.288;2022-10-31T21:44:12;1.43;;;0.47;;
13475;SDS011;6810;63.824;20.288;2022-10-31T21:46:58;0.40;;;0.30;;
13475;SDS011;6810;63.824;20.288;2022-10-31T21:49:45;0.30;;;0.30;;
13475;SDS011;6810;63.824;20.288;2022-10-31T21:52:32;0.63;;;0.37;;
13475;SDS011;6810;63.824;20.288;2022-10-31T21:55:19;0.57;;;0.47;;
13475;SDS011;6810;63.824;20.288;2022-10-31T21:58:05;0.40;;;0.30;;
13475;SDS011;6810;63.824;20.288;2022-10-31T22:00:52;0.67;;;0.40;;
13475;SDS011;6810;63.824;20.288;2022-10-31T22:03:39;0.30;;;0.30;;
13475;SDS011;6810;63.824;20.288;2022-10-31T22:06:27;0.93;;;0.23;;
13475;SDS011;6810;63.824;20.288;2022-10-31T22:09:17;1.37;;;0.73;;
13475;SDS011;6810;63.824;20.288;2022-10-31T22:12:04;0.20;;;0.20;;
13475;SDS011;6810;63.824;20.288;2022-10-31T22:14:51;2.83;;;0.30;;
13475;SDS011;6810;63.824;20.288;2022-10-31T22:17:21;0.20;;;0.20;;
13475;SDS011;6810;63.824;20.288;2022-10-31T22:20:08;0.30;;;0.30;;
13475;SDS011;6810;63.824;20.288;2022-10-31T22:22:55;0.30;;;0.20;;
13475;SDS011;6810;63.824;20.288;2022-10-31T22:25:42;0.70;;;0.30;;
13475;SDS011;6810;63.824;20.288;2022-10-31T22:28:30;1.00;;;0.20;;
13475;SDS011;6810;63.824;20.288;2022-10-31T22:31:18;0.37;;;0.10;;
13475;SDS011;6810;63.824;20.288;2022-10-31T22:34:06;0.10;;;0.10;;
13475;SDS011;6810;63.824;20.288;2022-10-31T22:36:53;0.67;;;0.20;;
13475;SDS011;6810;63.824;20.288;2022-10-31T22:39:45;0.20;;;0.10;;
13475;SDS011;6810;63.824;20.288;2022-10-31T22:42:31;0.10;;;0.10;;
13475;SDS011;6810;63.824;20.288;2022-10-31T22:45:18;0.30;;;0.30;;
13475;SDS011;6810;63.824;20.288;2022-10-31T22:48:05;0.13;;;0.13;;